This is the latest recevied weather packets stored in our database for station/object K8CWG. If no packets are shown the sender has not sent any weather packets the latest 10 day(s).
| Time | Temp. | Humidity | Pressure | Rain* | Wind** | Luminosity | Snow |
|---|---|---|---|---|---|---|---|
| 1777914003 | 19.44° C | 64% | 1007.5 hPa | 0 mm | - | - | - |
| 1777910405 | 18.89° C | 63% | 1007.9 hPa | 0 mm | - | - | - |
| 1777906806 | 16.67° C | 68% | 1008.1 hPa | 0 mm | - | - | - |
| 1777903202 | 15° C | 72% | 1008.6 hPa | 0 mm | - | - | - |
| 1777899604 | 12.78° C | 73% | 1008.9 hPa | 0 mm | - | - | - |
| 1777896005 | 11.67° C | 72% | 1009.1 hPa | 0 mm | - | - | - |
| 1777892403 | 10.56° C | 71% | 1008.9 hPa | 0 mm | - | - | - |
| 1777888803 | 10.56° C | 70% | 1009.2 hPa | 0 mm | - | - | - |
| 1777885203 | 10.56° C | 67% | 1009.6 hPa | 0 mm | - | - | - |
| 1777881602 | 11.11° C | 66% | 1010 hPa | 0 mm | - | - | - |
| 1777878003 | 11.11° C | 65% | 1010.6 hPa | 0 mm | - | - | - |
| 1777874402 | 10.56° C | 65% | 1011.3 hPa | 0 mm | - | - | - |
| 1777870804 | 10.56° C | 66% | 1011.7 hPa | 0 mm | - | - | - |
| 1777869902 | 10.56° C | 66% | 1011.8 hPa | 0 mm | - | - | - |
| 1777869002 | 10.56° C | 65% | 1011.8 hPa | 0 mm | - | - | - |
| 1777868102 | 10.56° C | 65% | 1011.9 hPa | 0 mm | - | - | - |
| 1777867206 | 11.11° C | 65% | 1012.1 hPa | 0 mm | - | - | - |
| 1777866301 | 11.11° C | 63% | 1012.3 hPa | 0 mm | - | - | - |
| 1777865401 | 11.67° C | 61% | 1012.4 hPa | 0 mm | - | - | - |
| 1777864501 | 12.22° C | 60% | 1012.4 hPa | 0 mm | - | - | - |
| 1777863602 | 12.22° C | 59% | 1012.6 hPa | 0 mm | - | - | - |
| 1777862705 | 12.22° C | 58% | 1012.6 hPa | 0 mm | - | - | - |
| 1777861801 | 12.78° C | 57% | 1012.7 hPa | 0 mm | - | - | - |
| 1777860900 | 12.78° C | 56% | 1012.5 hPa | 0 mm | - | - | - |
| 1777860007 | 13.33° C | 55% | 1012.5 hPa | 0 mm | - | - | - |
* Rain latest hour (hover to see other rain measurements)
** Current wind speed in m/s (hover to see current wind gust speed)